createdAt,value
2024-01-16T00:00:04.155Z,1.6
2024-01-16T00:01:05.421Z,1.7
2024-01-16T00:02:12.622Z,1.7
2024-01-16T00:03:16.828Z,1.7
2024-01-16T00:04:18.187Z,1.6
2024-01-16T00:05:19.486Z,1.6
2024-01-16T00:06:20.812Z,1.6
2024-01-16T00:07:25.196Z,1.6
2024-01-16T00:08:31.754Z,1.6
2024-01-16T00:09:36.276Z,1.6
2024-01-16T00:10:37.554Z,1.6
2024-01-16T00:11:38.786Z,1.6
2024-01-16T00:12:47.700Z,1.6
2024-01-16T00:13:51.740Z,1.6
2024-01-16T00:14:59.120Z,1.6
2024-01-16T00:16:00.274Z,1.6
2024-01-16T00:17:06.916Z,1.6
2024-01-16T00:18:11.144Z,1.7
2024-01-16T00:19:13.289Z,1.7
2024-01-16T00:20:14.936Z,1.6
2024-01-16T00:21:16.194Z,1.6
2024-01-16T00:22:17.340Z,1.7
2024-01-16T00:23:21.667Z,1.6
2024-01-16T00:24:30.502Z,1.7
2024-01-16T00:25:39.704Z,1.7
2024-01-16T00:26:41.056Z,1.7
2024-01-16T00:27:42.488Z,1.7
2024-01-16T00:28:48.810Z,1.7
2024-01-16T00:30:13.573Z,1.7
2024-01-16T00:31:35.763Z,1.7
2024-01-16T00:32:39.907Z,1.7
2024-01-16T00:33:41.450Z,1.7
2024-01-16T00:34:42.834Z,1.7
2024-01-16T00:35:46.434Z,1.7
2024-01-16T00:36:50.749Z,1.7
2024-01-16T00:37:59.210Z,1.7
2024-01-16T00:39:06.071Z,1.7
2024-01-16T00:40:07.279Z,1.7
2024-01-16T00:41:08.525Z,1.7
2024-01-16T00:42:12.726Z,1.7
2024-01-16T00:43:16.633Z,1.7
2024-01-16T00:44:17.775Z,1.7
2024-01-16T00:45:22.081Z,1.7
2024-01-16T00:46:25.439Z,1.7
2024-01-16T00:47:26.746Z,1.7
2024-01-16T00:48:31.318Z,1.7
2024-01-16T00:49:35.928Z,1.7
2024-01-16T00:50:40.223Z,1.7
2024-01-16T00:51:41.449Z,1.7
2024-01-16T00:52:45.137Z,1.7
2024-01-16T00:53:49.474Z,1.7
2024-01-16T00:55:56.791Z,1.7
2024-01-16T00:56:58.168Z,1.7
2024-01-16T00:57:59.365Z,1.7
2024-01-16T00:59:03.529Z,1.7
2024-01-16T01:00:07.785Z,1.7
2024-01-16T01:01:09.083Z,1.7
2024-01-16T01:02:13.362Z,1.7
2024-01-16T01:03:19.524Z,1.8
2024-01-16T01:04:23.434Z,1.7
2024-01-16T01:05:24.611Z,1.8
2024-01-16T01:06:26.163Z,1.7
2024-01-16T01:07:33.076Z,1.8
2024-01-16T01:08:37.001Z,1.8
2024-01-16T01:09:38.363Z,1.8
2024-01-16T01:10:45.493Z,1.8
2024-01-16T01:11:49.527Z,1.8
2024-01-16T01:12:56.055Z,1.8
2024-01-16T01:13:57.572Z,1.8
2024-01-16T01:15:09.721Z,1.8
2024-01-16T01:16:11.066Z,1.8
2024-01-16T01:17:15.264Z,1.8
2024-01-16T01:18:16.736Z,1.8
2024-01-16T01:19:30.887Z,1.8
2024-01-16T01:20:35.116Z,1.8
2024-01-16T01:21:39.632Z,1.8
2024-01-16T01:22:42.909Z,1.8
2024-01-16T01:24:07.980Z,1.8
2024-01-16T01:25:12.168Z,1.8
2024-01-16T01:26:13.573Z,1.8
2024-01-16T01:27:17.561Z,1.8
2024-01-16T01:29:51.259Z,1.8
2024-01-16T01:31:10.654Z,1.8
2024-01-16T01:32:14.645Z,1.8
2024-01-16T01:33:16.147Z,1.9
2024-01-16T01:35:01.224Z,1.9
2024-01-16T01:36:09.713Z,1.8
2024-01-16T01:37:15.679Z,1.8
2024-01-16T01:38:40.719Z,1.8
2024-01-16T01:39:42.115Z,1.9
2024-01-16T01:41:54.229Z,1.9
2024-01-16T01:42:58.417Z,1.9
2024-01-16T01:44:12.936Z,1.9
2024-01-16T01:46:22.766Z,1.9
2024-01-16T01:48:11.919Z,1.8
2024-01-16T01:49:30.663Z,1.9
2024-01-16T01:51:55.447Z,1.8
2024-01-16T01:53:01.656Z,1.9
2024-01-16T01:54:03.641Z,1.9
2024-01-16T01:55:12.345Z,1.9
2024-01-16T01:56:23.955Z,1.9
2024-01-16T01:57:33.330Z,1.9
2024-01-16T01:58:45.672Z,1.9
2024-01-16T01:59:54.509Z,1.9
2024-01-16T02:01:08.871Z,1.9
2024-01-16T02:03:16.533Z,1.9
2024-01-16T02:04:23.633Z,1.9
2024-01-16T02:05:24.842Z,1.9
2024-01-16T02:06:31.376Z,1.9
2024-01-16T02:07:38.075Z,1.9
2024-01-16T02:08:51.018Z,1.9
2024-01-16T02:10:01.142Z,1.9
2024-01-16T02:11:09.725Z,1.9
2024-01-16T02:13:29.574Z,1.9
2024-01-16T02:14:35.613Z,1.9
2024-01-16T02:15:42.145Z,1.9
2024-01-16T02:16:43.510Z,1.9
2024-01-16T02:17:44.812Z,1.9
2024-01-16T02:18:55.690Z,1.9
2024-01-16T02:19:59.041Z,1.9
2024-01-16T02:21:00.367Z,1.9
2024-01-16T02:22:07.287Z,1.8
2024-01-16T02:23:11.304Z,1.9
2024-01-16T02:24:15.240Z,1.8
2024-01-16T02:25:26.485Z,1.8
2024-01-16T02:26:30.876Z,1.8
2024-01-16T02:27:41.162Z,1.8
2024-01-16T02:28:48.454Z,1.8
2024-01-16T02:29:52.488Z,1.8
2024-01-16T02:30:56.680Z,1.8
2024-01-16T02:31:58.061Z,1.8
2024-01-16T02:33:06.377Z,1.8
2024-01-16T02:34:08.352Z,1.8
2024-01-16T02:35:09.959Z,1.8
2024-01-16T02:36:11.325Z,1.8
2024-01-16T02:37:15.284Z,1.8
2024-01-16T02:38:19.414Z,1.8
2024-01-16T02:39:28.516Z,1.8
2024-01-16T02:40:31.817Z,1.8
2024-01-16T02:41:38.869Z,1.8
2024-01-16T02:42:42.464Z,1.8
2024-01-16T02:43:46.651Z,1.7
2024-01-16T02:44:56.139Z,1.7
2024-01-16T02:45:57.438Z,1.7
2024-01-16T02:47:01.630Z,1.7
2024-01-16T02:48:13.406Z,1.7
2024-01-16T02:49:14.916Z,1.7
2024-01-16T02:50:16.204Z,1.7
2024-01-16T02:51:19.590Z,1.7
2024-01-16T02:52:20.808Z,1.7
2024-01-16T02:53:27.136Z,1.7
2024-01-16T02:54:31.054Z,1.7
2024-01-16T02:55:32.310Z,1.7
2024-01-16T02:56:33.500Z,1.7
2024-01-16T02:57:34.825Z,1.7
2024-01-16T02:58:35.967Z,1.7
2024-01-16T02:59:37.271Z,1.7
2024-01-16T03:00:47.644Z,1.7
2024-01-16T03:01:51.058Z,1.7
2024-01-16T03:04:09.897Z,1.7
2024-01-16T03:05:11.163Z,1.7
2024-01-16T03:06:23.458Z,1.7
2024-01-16T03:07:25.432Z,1.7
2024-01-16T03:08:38.326Z,1.7
2024-01-16T03:10:02.620Z,1.7
2024-01-16T03:11:06.918Z,1.7
2024-01-16T03:12:11.425Z,1.7
2024-01-16T03:13:15.290Z,1.7
2024-01-16T03:14:24.379Z,1.7
2024-01-16T03:15:35.186Z,1.7
2024-01-16T03:17:47.731Z,1.7
2024-01-16T03:19:01.413Z,1.7
2024-01-16T03:20:05.017Z,1.7
2024-01-16T03:21:27.424Z,1.7
2024-01-16T03:22:36.377Z,1.7
2024-01-16T03:23:40.479Z,1.6
2024-01-16T03:24:44.264Z,1.6
2024-01-16T03:25:52.777Z,1.6
2024-01-16T03:27:04.626Z,1.6
2024-01-16T03:28:17.467Z,1.6
2024-01-16T03:29:23.539Z,1.6
2024-01-16T03:30:36.066Z,1.6
2024-01-16T03:31:43.801Z,1.6
2024-01-16T03:32:45.048Z,1.6
2024-01-16T03:33:52.322Z,1.6
2024-01-16T03:36:07.680Z,1.6
2024-01-16T03:37:11.747Z,1.6
2024-01-16T03:39:00.884Z,1.6
2024-01-16T03:40:05.112Z,1.6
2024-01-16T03:41:12.175Z,1.6
2024-01-16T03:42:13.575Z,1.6
2024-01-16T03:43:17.724Z,1.6
2024-01-16T03:44:18.965Z,1.6
2024-01-16T03:46:41.893Z,1.5
2024-01-16T03:47:43.138Z,1.6
2024-01-16T03:49:58.239Z,1.5
2024-01-16T03:51:20.449Z,1.5
2024-01-16T03:52:29.399Z,1.5
2024-01-16T03:53:40.658Z,1.5
2024-01-16T03:54:44.834Z,1.5
2024-01-16T03:55:48.994Z,1.5
2024-01-16T03:57:04.446Z,1.5
2024-01-16T03:58:05.592Z,1.5
2024-01-16T03:59:14.024Z,1.5
2024-01-16T04:00:15.310Z,1.5
2024-01-16T04:01:21.955Z,1.5
2024-01-16T04:03:42.527Z,1.5
2024-01-16T04:04:46.585Z,1.5
2024-01-16T04:05:50.661Z,1.5
2024-01-16T04:06:52.126Z,1.5
2024-01-16T04:09:04.471Z,1.5
2024-01-16T04:10:13.542Z,1.5
2024-01-16T04:11:20.200Z,1.5
2024-01-16T04:12:21.461Z,1.5
2024-01-16T04:13:22.723Z,1.5
2024-01-16T04:14:23.913Z,1.5
2024-01-16T04:15:42.473Z,1.5
2024-01-16T04:16:49.286Z,1.5
2024-01-16T04:17:55.548Z,1.5
2024-01-16T04:19:07.336Z,1.5
2024-01-16T04:20:16.140Z,1.5
2024-01-16T04:21:57.667Z,1.5
2024-01-16T04:23:01.584Z,1.5
2024-01-16T04:24:02.834Z,1.5
2024-01-16T04:25:08.972Z,1.5
2024-01-16T04:26:31.428Z,1.5
2024-01-16T04:27:37.568Z,1.5
2024-01-16T04:29:57.424Z,1.5
2024-01-16T04:31:01.489Z,1.4
2024-01-16T04:32:05.124Z,1.5
2024-01-16T04:33:11.395Z,1.4
2024-01-16T04:34:34.346Z,1.4
2024-01-16T04:35:41.588Z,1.4
2024-01-16T04:36:43.061Z,1.4
2024-01-16T04:37:57.172Z,1.4
2024-01-16T04:39:01.082Z,1.4
2024-01-16T04:40:02.684Z,1.4
2024-01-16T04:41:24.822Z,1.4
2024-01-16T04:42:31.352Z,1.4
2024-01-16T04:43:32.585Z,1.4
2024-01-16T04:44:33.962Z,1.4
2024-01-16T04:45:38.017Z,1.4
2024-01-16T04:46:43.998Z,1.4
2024-01-16T04:47:50.103Z,1.4
2024-01-16T04:48:51.599Z,1.4
2024-01-16T04:49:55.823Z,1.4
2024-01-16T04:50:57.056Z,1.4
2024-01-16T04:52:03.937Z,1.3
2024-01-16T04:53:05.101Z,1.3
2024-01-16T04:54:06.311Z,1.3
2024-01-16T04:55:07.523Z,1.3
2024-01-16T04:56:10.710Z,1.3
2024-01-16T04:57:15.787Z,1.3
2024-01-16T04:58:17.036Z,1.3
2024-01-16T04:59:20.516Z,1.3
2024-01-16T05:00:21.807Z,1.3
2024-01-16T05:01:22.959Z,1.3
2024-01-16T05:02:26.820Z,1.3
2024-01-16T05:03:28.077Z,1.3
2024-01-16T05:04:32.590Z,1.3
2024-01-16T05:05:34.063Z,1.3
2024-01-16T05:06:35.616Z,1.3
2024-01-16T05:07:37.328Z,1.3
2024-01-16T05:08:38.690Z,1.2
2024-01-16T05:09:40.057Z,1.2
2024-01-16T05:10:45.625Z,1.2
2024-01-16T05:11:47.076Z,1.2
2024-01-16T05:12:53.931Z,1.2
2024-01-16T05:13:57.984Z,1.2
2024-01-16T05:15:04.059Z,1.2
2024-01-16T05:16:05.244Z,1.2
2024-01-16T05:17:12.066Z,1.2
2024-01-16T05:18:13.508Z,1.2
2024-01-16T05:19:15.117Z,1.2
2024-01-16T05:20:19.163Z,1.2
2024-01-16T05:21:20.467Z,1.1
2024-01-16T05:22:21.612Z,1.1
2024-01-16T05:23:25.872Z,1.1
2024-01-16T05:24:27.116Z,1.1
2024-01-16T05:25:28.347Z,1.1
2024-01-16T05:26:29.512Z,1.1
2024-01-16T05:27:30.804Z,1.1
2024-01-16T05:28:43.168Z,1.1
2024-01-16T05:29:44.791Z,1.1
2024-01-16T05:30:46.330Z,1.1
2024-01-16T05:31:50.349Z,1.1
2024-01-16T05:32:54.023Z,1.1
2024-01-16T05:33:55.446Z,1.1
2024-01-16T05:34:56.864Z,1
2024-01-16T05:36:00.840Z,1
2024-01-16T05:37:05.361Z,1
2024-01-16T05:38:06.582Z,1
2024-01-16T05:39:07.832Z,1
2024-01-16T05:40:11.574Z,1
2024-01-16T05:41:12.782Z,1
2024-01-16T05:42:14.009Z,1
2024-01-16T05:43:17.824Z,1
2024-01-16T05:44:26.359Z,1
2024-01-16T05:45:33.428Z,1
2024-01-16T05:46:34.690Z,1
2024-01-16T05:47:36.096Z,1
2024-01-16T05:48:42.847Z,1
2024-01-16T05:49:47.134Z,1
2024-01-16T05:50:48.682Z,1
2024-01-16T05:51:50.390Z,0.9
2024-01-16T05:52:51.571Z,1
2024-01-16T05:53:55.878Z,0.9
2024-01-16T05:54:57.173Z,0.9
2024-01-16T05:55:58.355Z,0.9
2024-01-16T05:56:59.783Z,0.9
2024-01-16T05:58:01.107Z,0.9
2024-01-16T05:59:02.283Z,0.9
2024-01-16T06:00:03.550Z,0.9
2024-01-16T06:01:07.443Z,0.9
2024-01-16T06:02:08.704Z,0.9
2024-01-16T06:03:09.959Z,0.9
2024-01-16T06:04:13.509Z,0.9
2024-01-16T06:05:16.028Z,0.9
2024-01-16T06:06:17.319Z,0.9
2024-01-16T06:07:18.868Z,0.9
2024-01-16T06:08:20.156Z,0.8
2024-01-16T06:09:23.590Z,0.8
2024-01-16T06:10:30.533Z,0.8
2024-01-16T06:11:31.707Z,0.8
2024-01-16T06:12:36.103Z,0.8
2024-01-16T06:13:40.290Z,0.8
2024-01-16T06:14:41.445Z,0.8
2024-01-16T06:15:44.972Z,0.8
2024-01-16T06:16:46.131Z,0.8
2024-01-16T06:17:47.343Z,0.8
2024-01-16T06:18:48.839Z,0.8
2024-01-16T06:19:50.203Z,0.8
2024-01-16T06:20:51.542Z,0.8
2024-01-16T06:21:52.915Z,0.8
2024-01-16T06:22:54.073Z,0.8
2024-01-16T06:23:55.255Z,0.8
2024-01-16T06:24:56.614Z,0.7
2024-01-16T06:25:57.800Z,0.7
2024-01-16T06:26:59.006Z,0.7
2024-01-16T06:28:03.330Z,0.7
2024-01-16T06:29:05.839Z,0.7
2024-01-16T06:30:25.061Z,0.7
2024-01-16T06:31:26.517Z,0.7
2024-01-16T06:32:27.993Z,0.7
2024-01-16T06:33:29.429Z,0.7
2024-01-16T06:34:31.139Z,0.7
2024-01-16T06:35:32.573Z,0.7
2024-01-16T06:36:33.781Z,0.7
2024-01-16T06:37:34.925Z,0.7
2024-01-16T06:38:36.114Z,0.7
2024-01-16T06:39:37.305Z,0.7
2024-01-16T06:40:38.538Z,0.7
2024-01-16T06:41:39.749Z,0.7
2024-01-16T06:42:40.916Z,0.7
2024-01-16T06:43:42.086Z,0.7
2024-01-16T06:44:43.318Z,0.7
2024-01-16T06:45:44.505Z,0.7
2024-01-16T06:46:45.715Z,0.7
2024-01-16T06:47:49.021Z,0.7
2024-01-16T06:48:53.200Z,0.7
2024-01-16T06:49:54.473Z,0.7
2024-01-16T06:50:55.677Z,0.7
2024-01-16T06:51:57.056Z,0.7
2024-01-16T06:52:58.194Z,0.7
2024-01-16T06:53:59.443Z,0.7
2024-01-16T06:55:00.889Z,0.7
2024-01-16T06:56:02.055Z,0.7
2024-01-16T06:57:03.240Z,0.7
2024-01-16T06:58:04.403Z,0.7
2024-01-16T06:59:06.385Z,0.7
2024-01-16T07:00:12.933Z,0.7
2024-01-16T07:01:14.640Z,0.7
2024-01-16T07:02:15.849Z,0.7
2024-01-16T07:03:16.975Z,0.7
2024-01-16T07:04:18.177Z,0.7
2024-01-16T07:05:19.559Z,0.7
2024-01-16T07:06:21.001Z,0.7
2024-01-16T07:07:22.431Z,0.7
2024-01-16T07:08:23.641Z,0.7
2024-01-16T07:09:24.815Z,0.7
2024-01-16T07:10:25.995Z,0.7
2024-01-16T07:11:27.149Z,0.7
2024-01-16T07:12:28.366Z,0.7
2024-01-16T07:13:29.493Z,0.7
2024-01-16T07:14:30.671Z,0.7
2024-01-16T07:15:31.893Z,0.8
2024-01-16T07:16:33.059Z,0.7
2024-01-16T07:17:34.508Z,0.7
2024-01-16T07:18:35.795Z,0.7
2024-01-16T07:19:37.181Z,0.8
2024-01-16T07:20:38.450Z,0.7
2024-01-16T07:21:39.688Z,0.7
2024-01-16T07:22:40.886Z,0.7
2024-01-16T07:23:42.049Z,0.7
2024-01-16T07:24:43.272Z,0.8
2024-01-16T07:25:44.435Z,0.7
2024-01-16T07:26:45.662Z,0.8
2024-01-16T07:27:46.892Z,0.7
2024-01-16T07:28:48.036Z,0.7
2024-01-16T07:29:49.240Z,0.8
2024-01-16T07:30:50.686Z,0.7
2024-01-16T07:31:51.872Z,0.7
2024-01-16T07:32:53.156Z,0.7
2024-01-16T07:33:54.789Z,0.7
2024-01-16T07:34:56.503Z,0.8
2024-01-16T07:35:57.696Z,0.8
2024-01-16T07:36:59.035Z,0.7
2024-01-16T07:38:01.760Z,0.7
2024-01-16T07:39:06.474Z,0.7
2024-01-16T07:40:07.629Z,0.8
2024-01-16T07:41:08.847Z,0.8
2024-01-16T07:42:10.107Z,0.7
2024-01-16T07:43:11.240Z,0.8
2024-01-16T07:44:12.434Z,0.8
2024-01-16T07:45:13.695Z,0.8
2024-01-16T07:46:14.854Z,0.8
2024-01-16T07:47:16.165Z,0.8
2024-01-16T07:48:17.565Z,0.8
2024-01-16T07:49:19.033Z,0.8
2024-01-16T07:50:20.226Z,0.8
2024-01-16T07:51:21.375Z,0.8
2024-01-16T07:52:22.557Z,0.8
2024-01-16T07:53:23.728Z,0.8
2024-01-16T07:54:24.934Z,0.8
2024-01-16T07:55:26.122Z,0.8
2024-01-16T07:56:27.304Z,0.8
2024-01-16T07:57:28.528Z,0.8
2024-01-16T07:58:29.694Z,0.8
2024-01-16T07:59:30.930Z,0.9
2024-01-16T08:00:32.247Z,0.9
2024-01-16T08:01:33.559Z,0.9
2024-01-16T08:02:34.769Z,0.9
2024-01-16T08:03:36.445Z,0.9
2024-01-16T08:04:37.646Z,1
2024-01-16T08:05:38.906Z,1
2024-01-16T08:06:40.821Z,1
2024-01-16T08:07:42.305Z,1
2024-01-16T08:08:43.533Z,1
2024-01-16T08:09:44.777Z,1.1
2024-01-16T08:10:45.988Z,1.1
2024-01-16T08:11:47.267Z,1.1
2024-01-16T08:12:48.636Z,1.2
2024-01-16T08:13:49.811Z,1.2
2024-01-16T08:14:51.038Z,1.2
2024-01-16T08:15:52.506Z,1.2
2024-01-16T08:16:53.654Z,1.3
2024-01-16T08:17:54.939Z,1.3
2024-01-16T08:18:56.482Z,1.3
2024-01-16T08:19:57.902Z,1.4
2024-01-16T08:20:59.104Z,1.4
2024-01-16T08:22:00.289Z,1.4
2024-01-16T08:23:01.484Z,1.5
2024-01-16T08:24:02.620Z,1.5
2024-01-16T08:25:03.791Z,1.5
2024-01-16T08:26:04.986Z,1.6
2024-01-16T08:27:06.119Z,1.6
2024-01-16T08:28:07.280Z,1.6
2024-01-16T08:29:08.457Z,1.7
2024-01-16T08:30:09.731Z,1.7
2024-01-16T08:31:11.027Z,1.8
2024-01-16T08:32:12.205Z,1.8
2024-01-16T08:33:13.509Z,1.8
2024-01-16T08:34:15.278Z,1.9
2024-01-16T08:35:16.919Z,1.9
2024-01-16T08:36:18.506Z,1.9
2024-01-16T08:37:22.720Z,1.9
2024-01-16T08:38:23.886Z,1.9
2024-01-16T08:39:25.025Z,1.9
2024-01-16T08:40:26.310Z,2
2024-01-16T08:41:27.478Z,2
2024-01-16T08:42:28.612Z,2
2024-01-16T08:43:29.780Z,2
2024-01-16T08:44:31.062Z,2.1
2024-01-16T08:45:32.333Z,2.1
2024-01-16T08:46:33.567Z,2.1
2024-01-16T08:47:34.788Z,2.1
2024-01-16T08:48:36.448Z,2.1
2024-01-16T08:49:38.265Z,2.2
2024-01-16T08:50:39.810Z,2.2
2024-01-16T08:51:41.053Z,2.2
2024-01-16T08:52:42.219Z,2.2
2024-01-16T08:53:43.587Z,2.2
2024-01-16T08:54:44.969Z,2.3
2024-01-16T08:55:46.150Z,2.3
2024-01-16T08:56:47.359Z,2.3
2024-01-16T08:57:48.637Z,2.4
2024-01-16T08:58:49.801Z,2.4
2024-01-16T08:59:51.016Z,2.4
2024-01-16T09:00:52.345Z,2.5
2024-01-16T09:01:53.551Z,2.5
2024-01-16T09:02:54.761Z,2.5
2024-01-16T09:03:55.989Z,2.5
2024-01-16T09:04:57.425Z,2.6
2024-01-16T09:05:58.814Z,2.6
2024-01-16T09:07:00.728Z,2.6
2024-01-16T09:08:02.506Z,2.6
2024-01-16T09:09:03.699Z,2.7
2024-01-16T09:10:04.863Z,2.7
2024-01-16T09:11:06.033Z,2.8
2024-01-16T09:12:07.229Z,2.8
2024-01-16T09:13:08.446Z,2.8
2024-01-16T09:14:09.660Z,2.9
2024-01-16T09:15:10.952Z,2.9
2024-01-16T09:16:12.135Z,2.9
2024-01-16T09:17:13.284Z,3
2024-01-16T09:18:14.553Z,3
2024-01-16T09:19:16.023Z,3.1
2024-01-16T09:20:17.393Z,3.1
2024-01-16T09:21:18.618Z,3.2
2024-01-16T09:22:19.765Z,3.2
2024-01-16T09:23:20.971Z,3.3
2024-01-16T09:24:22.299Z,3.3
2024-01-16T09:25:23.464Z,3.4
2024-01-16T09:26:24.649Z,3.4
2024-01-16T09:27:25.969Z,3.5
2024-01-16T09:28:27.273Z,3.6
2024-01-16T09:29:28.425Z,3.6
2024-01-16T09:30:29.676Z,3.6
2024-01-16T09:31:30.876Z,3.7
2024-01-16T09:32:32.085Z,3.8
2024-01-16T09:33:33.452Z,3.8
2024-01-16T09:34:34.882Z,3.8
2024-01-16T09:35:36.192Z,3.9
2024-01-16T09:36:37.393Z,3.9
2024-01-16T09:37:39.139Z,3.9
2024-01-16T09:38:40.703Z,4
2024-01-16T09:39:41.915Z,4
2024-01-16T09:40:43.051Z,4.1
2024-01-16T09:41:44.234Z,4.1
2024-01-16T09:42:45.455Z,4.2
2024-01-16T09:43:46.592Z,4.2
2024-01-16T09:44:47.860Z,4.3
2024-01-16T09:45:49.088Z,4.3
2024-01-16T09:46:50.321Z,4.4
2024-01-16T09:47:52.034Z,4.4
2024-01-16T09:48:54.405Z,4.5
2024-01-16T09:49:55.793Z,4.5
2024-01-16T09:50:57.061Z,4.6
2024-01-16T09:51:58.511Z,4.6
2024-01-16T09:53:00.180Z,4.7
2024-01-16T09:54:01.667Z,4.7
2024-01-16T09:55:03.059Z,4.8
2024-01-16T09:56:04.240Z,4.9
2024-01-16T09:57:05.452Z,4.9
2024-01-16T09:58:06.607Z,5
2024-01-16T09:59:07.771Z,5
2024-01-16T10:00:08.975Z,5.2
2024-01-16T10:01:10.164Z,5.3
2024-01-16T10:02:11.446Z,5.3
2024-01-16T10:03:12.857Z,5.4
2024-01-16T10:04:14.087Z,5.5
2024-01-16T10:05:15.710Z,5.5
2024-01-16T10:06:17.365Z,5.6
2024-01-16T10:07:18.694Z,5.7
2024-01-16T10:08:19.863Z,5.8
2024-01-16T10:09:21.005Z,5.9
2024-01-16T10:10:26.737Z,6
2024-01-16T10:11:50.723Z,6.2
2024-01-16T10:12:52.093Z,6.4
2024-01-16T10:13:53.255Z,6.5
2024-01-16T10:14:54.502Z,6.6
2024-01-16T10:15:55.925Z,6.7
2024-01-16T10:16:57.226Z,6.9
2024-01-16T10:17:58.436Z,7
2024-01-16T10:18:59.843Z,7.2
2024-01-16T10:20:01.314Z,7.4
2024-01-16T10:21:02.729Z,7.5
2024-01-16T10:22:04.163Z,7.7
2024-01-16T10:23:05.355Z,8
2024-01-16T10:24:06.510Z,8.2
2024-01-16T10:25:07.679Z,8.4
2024-01-16T10:26:09.033Z,8.5
2024-01-16T10:27:10.204Z,8.7
2024-01-16T10:28:11.361Z,8.8
2024-01-16T10:29:12.540Z,8.9
2024-01-16T10:30:14.078Z,9
2024-01-16T10:31:16.223Z,9.2
2024-01-16T10:32:18.603Z,9.3
2024-01-16T10:33:20.332Z,9.5
2024-01-16T10:34:22.108Z,9.6
2024-01-16T10:35:23.834Z,9.8
2024-01-16T10:36:25.184Z,10
2024-01-16T10:37:26.393Z,10.1
2024-01-16T10:38:27.660Z,10.3
2024-01-16T10:39:35.734Z,10.5
2024-01-16T10:40:45.033Z,10.7
2024-01-16T10:41:46.238Z,10.9
2024-01-16T10:42:47.614Z,11.1
2024-01-16T10:43:48.801Z,11.4
2024-01-16T10:44:50.078Z,11.5
2024-01-16T10:45:51.336Z,11.7
2024-01-16T10:46:52.498Z,11.8
2024-01-16T10:47:53.701Z,12.1
2024-01-16T10:48:55.133Z,12.4
2024-01-16T10:49:56.503Z,12.7
2024-01-16T10:50:57.756Z,13
2024-01-16T10:51:58.958Z,13.3
2024-01-16T10:53:00.149Z,13.6
2024-01-16T10:54:01.320Z,13.9
2024-01-16T10:55:02.465Z,14.2
2024-01-16T10:56:03.629Z,14.5
2024-01-16T10:57:04.795Z,14.8
2024-01-16T10:58:05.957Z,15
2024-01-16T10:59:07.172Z,15.3
2024-01-16T11:00:08.320Z,15.6
2024-01-16T11:01:09.498Z,15.7
2024-01-16T11:02:10.725Z,15.7
2024-01-16T11:03:11.937Z,15.6
2024-01-16T11:04:14.473Z,15.6
2024-01-16T11:05:17.339Z,15.9
2024-01-16T11:06:18.981Z,16
2024-01-16T11:07:21.561Z,15.9
2024-01-16T11:08:22.824Z,16
2024-01-16T11:09:24.140Z,15.9
2024-01-16T11:10:25.294Z,15.8
2024-01-16T11:11:26.465Z,15.8
2024-01-16T11:12:27.725Z,15.7
2024-01-16T11:13:28.871Z,15.6
2024-01-16T11:14:30.094Z,15.6
2024-01-16T11:15:31.289Z,15.6
2024-01-16T11:16:32.440Z,15.6
2024-01-16T11:17:33.631Z,15.7
2024-01-16T11:18:34.969Z,15.6
2024-01-16T11:19:42.890Z,15.6
2024-01-16T11:21:38.861Z,15.5
2024-01-16T11:22:40.236Z,15.4
2024-01-16T11:23:41.833Z,15.3
2024-01-16T11:24:42.978Z,15.2
2024-01-16T11:25:44.199Z,15.1
2024-01-16T11:26:45.419Z,14.9
2024-01-16T11:27:46.707Z,14.8
2024-01-16T11:28:47.872Z,14.7
2024-01-16T11:29:49.081Z,14.6
2024-01-16T11:30:50.314Z,14.5
2024-01-16T11:31:51.672Z,14.4
2024-01-16T11:33:19.195Z,14.2
2024-01-16T11:34:20.638Z,14.1
2024-01-16T11:35:22.261Z,14.1
2024-01-16T11:36:23.477Z,13.9
2024-01-16T11:37:24.683Z,13.8
2024-01-16T11:38:26.470Z,13.7
2024-01-16T11:39:28.447Z,13.7
2024-01-16T11:40:29.587Z,13.6
2024-01-16T11:41:36.316Z,13.6
2024-01-16T11:42:44.021Z,13.5
2024-01-16T11:43:45.185Z,13.6
2024-01-16T11:44:46.349Z,13.8
2024-01-16T11:45:47.563Z,14.2
2024-01-16T11:46:51.551Z,14.5
2024-01-16T11:47:52.979Z,14.8
2024-01-16T11:48:54.433Z,15.1
2024-01-16T11:49:55.829Z,15.3
2024-01-16T11:50:57.070Z,15.6
2024-01-16T11:51:58.297Z,15.8
2024-01-16T11:52:59.470Z,16.1
2024-01-16T11:54:00.682Z,16.3
2024-01-16T11:55:01.990Z,16.5
2024-01-16T11:56:03.123Z,16.8
2024-01-16T11:57:04.316Z,17
2024-01-16T11:58:05.468Z,17.3
2024-01-16T11:59:06.654Z,17.5
2024-01-16T12:00:07.802Z,17.7
2024-01-16T12:01:09.043Z,17.9
2024-01-16T12:02:10.241Z,18.1
2024-01-16T12:03:11.714Z,18.3
2024-01-16T12:04:16.515Z,18.4
2024-01-16T12:05:17.723Z,18.5
2024-01-16T12:06:19.190Z,18.7
2024-01-16T12:07:20.768Z,18.7
2024-01-16T12:08:22.024Z,18.8
2024-01-16T12:09:23.212Z,18.9
2024-01-16T12:10:24.412Z,18.8
2024-01-16T12:11:30.190Z,18.7
2024-01-16T12:12:44.660Z,18.5
2024-01-16T12:13:45.878Z,18.3
2024-01-16T12:14:47.025Z,18.2
2024-01-16T12:15:48.255Z,18.1
2024-01-16T12:16:49.477Z,17.9
2024-01-16T12:17:50.704Z,17.8
2024-01-16T12:18:52.292Z,17.6
2024-01-16T12:19:53.764Z,17.5
2024-01-16T12:20:55.195Z,17.3
2024-01-16T12:21:56.420Z,17.1
2024-01-16T12:22:57.603Z,17
2024-01-16T12:24:04.618Z,16.8
2024-01-16T12:25:18.937Z,16.6
2024-01-16T12:26:20.150Z,16.4
2024-01-16T12:27:21.323Z,16.3
2024-01-16T12:29:34.815Z,16
2024-01-16T12:30:35.993Z,15.8
2024-01-16T12:31:37.191Z,15.6
2024-01-16T12:32:38.440Z,15.5
2024-01-16T12:33:43.137Z,15.3
2024-01-16T12:35:04.557Z,15.1
2024-01-16T12:36:06.456Z,14.9
2024-01-16T12:37:08.220Z,14.8
2024-01-16T12:38:09.384Z,14.6
2024-01-16T12:39:10.555Z,14.4
2024-01-16T12:40:11.762Z,14.3
2024-01-16T12:41:12.956Z,14.1
2024-01-16T12:42:14.451Z,14
2024-01-16T12:43:15.712Z,13.8
2024-01-16T12:44:17.493Z,13.7
2024-01-16T12:45:19.637Z,13.5
2024-01-16T12:46:20.806Z,13.4
2024-01-16T12:47:21.997Z,13.2
2024-01-16T12:48:23.417Z,13.1
2024-01-16T12:49:25.034Z,13
2024-01-16T12:50:27.558Z,12.8
2024-01-16T12:51:28.869Z,12.7
2024-01-16T12:52:30.033Z,12.5
2024-01-16T12:53:31.244Z,12.4
2024-01-16T12:54:32.509Z,12.3
2024-01-16T12:55:33.818Z,12.1
2024-01-16T12:56:38.119Z,12
2024-01-16T12:58:01.375Z,11.9
2024-01-16T12:59:04.308Z,11.7
2024-01-16T13:00:09.528Z,11.6
2024-01-16T13:01:16.137Z,11.5
2024-01-16T13:02:32.184Z,11.3
2024-01-16T13:03:33.519Z,11.2
2024-01-16T13:04:34.923Z,11.1
2024-01-16T13:05:36.165Z,11
2024-01-16T13:06:38.232Z,10.9
2024-01-16T13:07:40.475Z,10.8
2024-01-16T13:08:41.642Z,10.6
2024-01-16T13:09:42.822Z,10.5
2024-01-16T13:10:43.973Z,10.4
2024-01-16T13:11:45.166Z,10.3
2024-01-16T13:12:46.308Z,10.2
2024-01-16T13:13:47.504Z,10.1
2024-01-16T13:14:48.684Z,10
2024-01-16T13:15:49.874Z,10
2024-01-16T13:16:51.031Z,9.9
2024-01-16T13:17:52.226Z,9.8
2024-01-16T13:18:53.627Z,9.7
2024-01-16T13:19:54.846Z,9.6
2024-01-16T13:20:56.080Z,9.5
2024-01-16T13:21:57.291Z,9.4
2024-01-16T13:22:58.456Z,9.3
2024-01-16T13:23:59.785Z,9.2
2024-01-16T13:25:05.508Z,9.1
2024-01-16T13:26:10.551Z,9
2024-01-16T13:27:11.694Z,9
2024-01-16T13:28:12.854Z,8.9
2024-01-16T13:29:14.220Z,8.8
2024-01-16T13:30:15.682Z,8.7
2024-01-16T13:31:16.959Z,8.7
2024-01-16T13:32:18.183Z,8.5
2024-01-16T13:33:19.799Z,8.5
2024-01-16T13:34:22.953Z,8.4
2024-01-16T13:35:28.110Z,8.3
2024-01-16T13:36:40.212Z,8.2
2024-01-16T13:38:17.174Z,8.1
2024-01-16T13:39:18.666Z,8
2024-01-16T13:40:20.500Z,7.9
2024-01-16T13:41:25.994Z,7.9
2024-01-16T13:42:27.311Z,7.8
2024-01-16T13:43:28.460Z,7.7
2024-01-16T13:44:29.803Z,7.6
2024-01-16T13:45:31.023Z,7.5
2024-01-16T13:48:06.594Z,7.4
2024-01-16T13:49:08.120Z,7.3
2024-01-16T13:50:09.732Z,7.2
2024-01-16T13:51:10.931Z,7.2
2024-01-16T13:52:12.096Z,7.1
2024-01-16T13:53:13.363Z,7.1
2024-01-16T13:54:14.602Z,7
2024-01-16T13:55:15.955Z,6.9
2024-01-16T13:56:18.463Z,6.9
2024-01-16T13:57:53.248Z,6.8
2024-01-16T13:58:54.564Z,6.7
2024-01-16T13:59:55.855Z,6.7
2024-01-16T14:00:57.246Z,6.6
2024-01-16T14:01:58.406Z,6.6
2024-01-16T14:02:59.797Z,6.5
2024-01-16T14:04:02.648Z,6.4
2024-01-16T14:05:04.026Z,6.4
2024-01-16T14:06:05.427Z,6.3
2024-01-16T14:08:15.013Z,6.2
2024-01-16T14:09:16.245Z,6.2
2024-01-16T14:10:17.497Z,6.1
2024-01-16T14:11:18.736Z,6.1
2024-01-16T14:12:19.943Z,6
2024-01-16T14:13:21.108Z,6
2024-01-16T14:14:22.331Z,5.9
2024-01-16T14:15:23.599Z,5.9
2024-01-16T14:16:32.209Z,5.8
2024-01-16T14:17:55.151Z,5.8
2024-01-16T14:18:57.493Z,5.7
2024-01-16T14:19:58.982Z,5.7
2024-01-16T14:21:00.313Z,5.7
2024-01-16T14:22:01.736Z,5.6
2024-01-16T14:23:02.914Z,5.6
2024-01-16T14:24:04.071Z,5.5
2024-01-16T14:25:05.227Z,5.5
2024-01-16T14:26:06.497Z,5.4
2024-01-16T14:27:07.780Z,5.4
2024-01-16T14:28:12.419Z,5.3
2024-01-16T14:29:30.950Z,5.3
2024-01-16T14:30:32.268Z,5.3
2024-01-16T14:31:33.445Z,5.2
2024-01-16T14:32:34.757Z,5.2
2024-01-16T14:33:36.289Z,5.1
2024-01-16T14:34:38.003Z,5.1
2024-01-16T14:35:39.810Z,5.1
2024-01-16T14:36:41.048Z,5
2024-01-16T14:37:42.231Z,5
2024-01-16T14:38:46.073Z,5
2024-01-16T14:39:47.269Z,4.9
2024-01-16T14:40:48.444Z,4.9
2024-01-16T14:41:49.768Z,4.8
2024-01-16T14:42:51.308Z,4.8
2024-01-16T14:43:52.501Z,4.8
2024-01-16T14:44:53.648Z,4.7
2024-01-16T14:45:55.054Z,4.7
2024-01-16T14:46:56.214Z,4.7
2024-01-16T14:47:57.652Z,4.6
2024-01-16T14:48:59.394Z,4.6
2024-01-16T14:50:00.861Z,4.6
2024-01-16T14:51:02.304Z,4.5
2024-01-16T14:52:03.910Z,4.5
2024-01-16T14:53:05.086Z,4.5
2024-01-16T14:54:06.252Z,4.4
2024-01-16T14:55:07.410Z,4.4